Time;durP1;ratioP1;P1;durP2;ratioP2;P2;SDS_P1;SDS_P2;PMS_P1;PMS_P2;Temp;Humidity;BMP_temperature;BMP_pressure;BME280_temperature;BME280_humidity;BME280_pressure;Samples;Min_cycle;Max_cycle;Signal;HPM_P1;HPM_P2
2023/08/30 00:01:34;;;;;;;7.47;6.77;;;14.70;1.00;;;;;;5100283;28;20780;-60
2023/08/30 00:04:00;;;;;;;7.63;6.23;;;14.70;1.00;;;;;;5100703;28;20728;-60
2023/08/30 00:06:29;;;;;;;8.10;7.40;;;14.70;1.00;;;;;;5100513;28;20456;-60
2023/08/30 00:08:57;;;;;;;10.70;7.70;;;14.60;1.00;;;;;;5099540;28;20466;-60
2023/08/30 00:11:24;;;;;;;8.63;7.37;;;14.60;1.00;;;;;;5099885;28;20452;-60
2023/08/30 00:13:51;;;;;;;8.47;7.57;;;14.50;1.00;;;;;;5100039;28;20555;-60
2023/08/30 00:16:18;;;;;;;9.10;8.27;;;14.50;1.00;;;;;;5100144;28;20456;-60
2023/08/30 00:18:46;;;;;;;9.77;7.67;;;14.30;1.00;;;;;;5099868;28;20819;-60
2023/08/30 00:21:13;;;;;;;11.87;8.67;;;14.30;1.00;;;;;;5100056;28;20768;-59
2023/08/30 00:23:42;;;;;;;8.70;7.93;;;14.30;1.00;;;;;;5100057;28;20906;-60
2023/08/30 00:26:09;;;;;;;8.13;7.33;;;14.30;6.10;;;;;;5100193;28;20460;-60
2023/08/30 00:28:36;;;;;;;8.07;7.27;;;14.30;1.00;;;;;;5099833;28;20573;-59
2023/08/30 00:31:02;;;;;;;7.67;6.93;;;14.30;1.00;;;;;;5099488;28;20460;-60
2023/08/30 00:33:30;;;;;;;9.50;8.10;;;14.20;1.00;;;;;;5099680;28;20457;-60
2023/08/30 00:35:58;;;;;;;8.23;7.43;;;14.10;1.00;;;;;;5106761;28;20527;-57
2023/08/30 00:38:27;;;;;;;9.20;8.30;;;14.10;12.30;;;;;;5119943;28;20465;-60
2023/08/30 00:40:55;;;;;;;10.93;9.10;;;14.00;27.60;;;;;;5120299;28;20542;-60
2023/08/30 00:43:22;;;;;;;10.10;8.80;;;14.00;21.80;;;;;;5119748;28;20546;-59
2023/08/30 00:45:50;;;;;;;9.83;9.00;;;13.90;16.40;;;;;;5119975;28;20483;-60
2023/08/30 00:48:20;;;;;;;11.23;9.03;;;13.90;1.00;;;;;;5120283;28;20459;-60
2023/08/30 00:50:48;;;;;;;11.90;10.07;;;13.80;3.80;;;;;;5119421;28;20456;-60
2023/08/30 00:53:15;;;;;;;11.33;10.23;;;13.80;12.90;;;;;;5119693;28;20547;-60
2023/08/30 00:55:43;;;;;;;11.10;9.93;;;13.80;3.10;;;;;;5119636;28;20487;-59
2023/08/30 00:58:12;;;;;;;9.13;8.13;;;13.80;11.10;;;;;;5119573;28;20897;-60
2023/08/30 01:00:41;;;;;;;9.20;8.30;;;13.80;10.30;;;;;;5119429;28;20519;-59
2023/08/30 01:03:08;;;;;;;10.50;9.50;;;13.70;23.20;;;;;;5118878;28;20495;-60
2023/08/30 01:05:35;;;;;;;10.20;9.17;;;13.70;53.00;;;;;;5118255;28;20455;-60
2023/08/30 01:08:03;;;;;;;11.20;10.00;;;13.60;48.90;;;;;;5119694;28;20542;-60
2023/08/30 01:10:41;;;;;;;13.83;8.83;;;13.60;91.00;;;;;;5119224;28;20460;-60
2023/08/30 01:13:17;;;;;;;13.07;10.47;;;13.60;94.70;;;;;;5119335;28;20850;-60
2023/08/30 01:15:47;;;;;;;10.47;9.57;;;13.60;97.60;;;;;;5119846;28;20471;-59
2023/08/30 01:18:16;;;;;;;15.33;9.73;;;13.60;84.40;;;;;;5119379;28;20455;-60
2023/08/30 01:20:45;;;;;;;11.03;10.07;;;13.50;99.90;;;;;;5119066;28;20813;-60
2023/08/30 01:23:21;;;;;;;10.27;9.27;;;13.50;99.90;;;;;;5118985;28;20499;-60
2023/08/30 01:25:56;;;;;;;10.70;9.00;;;13.40;94.90;;;;;;5119219;28;20465;-60
2023/08/30 01:28:28;;;;;;;10.43;9.53;;;13.40;90.90;;;;;;5119242;28;20455;-59
2023/08/30 01:30:57;;;;;;;10.47;9.37;;;13.30;90.00;;;;;;5118864;28;20484;-60
2023/08/30 01:33:26;;;;;;;10.13;9.23;;;13.30;94.70;;;;;;5118780;28;20456;-60
2023/08/30 01:35:55;;;;;;;12.23;9.00;;;13.30;95.60;;;;;;5117844;28;20972;-59
2023/08/30 01:38:23;;;;;;;10.97;9.40;;;13.30;99.90;;;;;;5119117;28;20550;-60
2023/08/30 01:40:51;;;;;;;11.00;9.90;;;13.20;99.90;;;;;;5118476;28;20554;-59
2023/08/30 01:43:19;;;;;;;11.33;10.17;;;13.20;99.90;;;;;;5118361;28;21050;-60
2023/08/30 01:45:48;;;;;;;11.97;10.57;;;13.10;99.90;;;;;;5118906;28;20461;-60
2023/08/30 01:48:17;;;;;;;11.40;10.20;;;13.10;99.90;;;;;;5119050;28;20466;-60
2023/08/30 01:50:46;;;;;;;13.03;10.30;;;13.00;99.90;;;;;;5118488;28;20978;-60
2023/08/30 01:53:15;;;;;;;11.50;10.30;;;13.00;99.90;;;;;;5118622;28;20452;-59
2023/08/30 01:55:43;;;;;;;15.17;13.57;;;13.00;99.90;;;;;;5117327;28;20902;-59
2023/08/30 01:58:10;;;;;;;16.07;13.20;;;13.00;99.90;;;;;;5118684;28;20462;-60
2023/08/30 02:00:38;;;;;;;14.50;13.20;;;13.10;99.90;;;;;;5118489;28;20741;-60
2023/08/30 02:03:14;;;;;;;14.60;13.10;;;13.20;99.90;;;;;;5118492;28;20541;-59
2023/08/30 02:06:01;;;;;;;14.67;13.00;;;13.20;99.90;;;;;;5118791;28;20467;-59
2023/08/30 02:08:36;;;;;;;16.67;14.37;;;13.10;99.90;;;;;;5118492;28;20462;-59
2023/08/30 02:11:08;;;;;;;14.67;13.37;;;13.20;99.90;;;;;;5118289;28;20508;-59
2023/08/30 02:13:36;;;;;;;17.53;14.70;;;13.20;99.90;;;;;;5118164;28;20459;-59
2023/08/30 02:16:06;;;;;;;14.30;12.90;;;13.20;99.90;;;;;;5118035;28;20542;-59
2023/08/30 02:18:35;;;;;;;14.70;13.30;;;13.20;99.90;;;;;;5117702;28;20512;-60
2023/08/30 02:21:03;;;;;;;14.67;13.33;;;13.20;99.90;;;;;;5118015;28;20455;-58
2023/08/30 02:23:30;;;;;;;15.00;13.57;;;13.20;99.90;;;;;;5117254;28;20483;-59
2023/08/30 02:25:57;;;;;;;15.53;14.07;;;13.20;99.90;;;;;;5118105;28;20456;-59
2023/08/30 02:28:24;;;;;;;15.03;13.57;;;13.20;99.90;;;;;;5118392;28;20491;-59
2023/08/30 02:30:54;;;;;;;14.43;12.80;;;13.20;99.90;;;;;;5117785;28;20499;-59
2023/08/30 02:33:22;;;;;;;16.00;14.40;;;13.20;99.90;;;;;;5118029;28;20447;-60
2023/08/30 02:35:50;;;;;;;19.00;15.20;;;13.30;99.90;;;;;;5117508;28;20540;-60
2023/08/30 02:38:17;;;;;;;17.63;15.73;;;13.30;99.90;;;;;;5117915;28;20554;-60
2023/08/30 02:40:45;;;;;;;15.67;14.17;;;13.40;99.90;;;;;;5117710;28;20699;-60
2023/08/30 02:43:12;;;;;;;16.80;15.20;;;13.40;99.90;;;;;;5117487;28;20537;-60
2023/08/30 02:45:39;;;;;;;16.93;15.30;;;13.40;99.90;;;;;;5117682;28;20459;-60
2023/08/30 02:48:07;;;;;;;18.20;15.40;;;13.30;99.90;;;;;;5117273;28;20832;-60
2023/08/30 02:50:34;;;;;;;15.40;14.00;;;13.40;99.90;;;;;;5117346;28;20547;-59
2023/08/30 02:53:03;;;;;;;17.37;15.33;;;13.40;99.90;;;;;;5117540;28;20535;-60
2023/08/30 02:55:32;;;;;;;14.53;13.13;;;13.40;99.90;;;;;;5117533;28;20467;-60
2023/08/30 02:57:59;;;;;;;13.63;12.43;;;13.40;99.90;;;;;;5117801;28;20487;-60
2023/08/30 03:00:31;;;;;;;15.83;14.37;;;13.40;99.90;;;;;;5117763;28;21093;-60
2023/08/30 03:02:59;;;;;;;14.87;13.57;;;13.30;99.90;;;;;;5117117;28;20487;-60
2023/08/30 03:05:26;;;;;;;16.13;14.17;;;13.20;99.90;;;;;;5116950;28;20457;-60
2023/08/30 03:07:54;;;;;;;15.40;13.40;;;13.10;99.90;;;;;;5117826;28;20499;-59
2023/08/30 03:10:23;;;;;;;17.97;14.30;;;13.00;99.90;;;;;;5117624;28;20737;-60
2023/08/30 03:12:51;;;;;;;15.30;13.90;;;13.00;99.90;;;;;;5117820;28;20452;-60
2023/08/30 03:15:18;;;;;;;15.33;13.87;;;13.00;99.90;;;;;;5116909;28;20456;-60
2023/08/30 03:17:45;;;;;;;14.20;12.70;;;13.00;99.90;;;;;;5117160;28;20463;-60
2023/08/30 03:20:13;;;;;;;15.17;13.60;;;12.90;99.90;;;;;;5116884;28;20744;-60
2023/08/30 03:22:40;;;;;;;15.17;13.60;;;12.80;99.90;;;;;;5117141;28;20747;-60
2023/08/30 03:25:09;;;;;;;17.10;15.40;;;12.80;99.90;;;;;;5117247;28;20958;-60
2023/08/30 03:27:37;;;;;;;17.90;14.67;;;12.90;99.90;;;;;;5117321;28;20944;-60
2023/08/30 03:30:06;;;;;;;17.07;15.23;;;12.80;99.90;;;;;;5120823;28;20487;-60
2023/08/30 03:32:33;;;;;;;16.47;14.87;;;12.80;99.90;;;;;;5121147;28;20469;-60
2023/08/30 03:35:00;;;;;;;16.67;14.83;;;12.80;99.90;;;;;;5120774;28;20455;-60
2023/08/30 03:37:29;;;;;;;15.20;13.80;;;12.70;99.90;;;;;;5100844;28;20546;-60
2023/08/30 03:39:57;;;;;;;17.10;14.30;;;12.60;99.90;;;;;;5101232;28;20543;-60
2023/08/30 03:42:24;;;;;;;16.00;14.40;;;12.60;99.90;;;;;;5101032;28;20575;-60
2023/08/30 03:44:53;;;;;;;15.60;14.00;;;12.50;99.90;;;;;;5100522;28;20456;-60
2023/08/30 03:47:20;;;;;;;14.23;12.93;;;12.40;99.90;;;;;;5100454;28;20456;-60
2023/08/30 03:49:47;;;;;;;15.07;13.50;;;12.40;99.90;;;;;;5099934;28;20905;-59
2023/08/30 03:52:14;;;;;;;16.87;15.23;;;12.40;99.90;;;;;;5099015;28;20459;-58
2023/08/30 03:54:42;;;;;;;15.80;14.20;;;12.20;99.90;;;;;;5100044;28;20816;-60
2023/08/30 03:57:09;;;;;;;15.57;14.03;;;12.20;99.90;;;;;;5100384;28;20952;-60
2023/08/30 03:59:36;;;;;;;15.63;14.00;;;12.20;99.90;;;;;;5100458;28;20768;-60
2023/08/30 04:02:05;;;;;;;16.10;14.57;;;12.20;99.90;;;;;;5100668;28;20492;-60
2023/08/30 04:04:32;;;;;;;14.77;13.37;;;12.20;99.90;;;;;;5100310;28;20456;-60
2023/08/30 04:06:59;;;;;;;15.47;13.97;;;12.20;99.90;;;;;;5099937;28;20452;-60
2023/08/30 04:09:26;;;;;;;16.13;14.63;;;12.10;99.90;;;;;;5098435;28;20547;-59
2023/08/30 04:11:54;;;;;;;15.97;14.37;;;12.00;99.90;;;;;;5098011;28;20460;-60
2023/08/30 04:14:21;;;;;;;15.20;13.80;;;11.90;99.90;;;;;;5098459;28;20511;-60
2023/08/30 04:16:48;;;;;;;17.10;15.50;;;11.90;99.90;;;;;;5098004;28;20526;-60
2023/08/30 04:19:16;;;;;;;16.40;14.60;;;12.00;99.90;;;;;;5098091;28;20551;-61
2023/08/30 04:21:44;;;;;;;17.27;15.73;;;11.90;99.90;;;;;;5098311;28;20752;-61
2023/08/30 04:24:11;;;;;;;17.67;16.10;;;11.90;99.90;;;;;;5099503;28;20527;-62
2023/08/30 04:26:38;;;;;;;16.90;15.10;;;11.90;99.90;;;;;;5099690;28;20759;-61
2023/08/30 04:29:05;;;;;;;17.23;15.43;;;11.90;99.90;;;;;;5099987;28;20488;-61
2023/08/30 04:31:32;;;;;;;18.10;16.20;;;11.90;99.90;;;;;;5099292;28;20478;-61
2023/08/30 04:34:00;;;;;;;19.97;17.73;;;11.90;99.90;;;;;;5099400;28;20456;-58
2023/08/30 04:36:28;;;;;;;19.90;17.90;;;12.00;99.90;;;;;;5111051;28;20518;-58
2023/08/30 04:38:55;;;;;;;20.53;18.37;;;12.00;99.90;;;;;;5120104;28;20472;-59
2023/08/30 04:41:23;;;;;;;20.67;18.67;;;12.00;99.90;;;;;;5119805;28;20491;-58
2023/08/30 04:43:50;;;;;;;21.20;18.97;;;12.00;99.90;;;;;;5120260;28;20578;-58
2023/08/30 04:46:17;;;;;;;21.00;18.90;;;12.00;99.90;;;;;;5119665;28;20456;-58
2023/08/30 04:48:44;;;;;;;20.83;18.83;;;12.00;99.90;;;;;;5120001;28;20463;-58
2023/08/30 04:51:12;;;;;;;22.80;20.33;;;11.90;99.90;;;;;;5119920;28;20506;-59
2023/08/30 04:53:42;;;;;;;22.60;20.40;;;12.00;99.90;;;;;;5119645;27;20505;-58
2023/08/30 04:56:14;;;;;;;24.30;21.27;;;11.90;99.90;;;;;;5119738;28;20499;-58
2023/08/30 04:58:44;;;;;;;25.97;23.27;;;11.90;99.90;;;;;;5119582;28;20516;-59
2023/08/30 05:01:13;;;;;;;22.97;20.60;;;11.90;99.90;;;;;;5119923;28;20459;-61
2023/08/30 05:03:40;;;;;;;22.90;20.60;;;11.90;99.90;;;;;;5119120;28;20545;-62
2023/08/30 05:06:08;;;;;;;23.27;20.93;;;11.90;99.90;;;;;;5119190;28;20508;-62
2023/08/30 05:08:35;;;;;;;22.67;20.37;;;11.90;99.90;;;;;;5119377;28;20504;-62
2023/08/30 05:11:04;;;;;;;22.10;19.93;;;11.90;96.30;;;;;;5119664;28;20900;-62
2023/08/30 05:13:31;;;;;;;21.97;19.77;;;11.90;97.40;;;;;;5119840;28;20483;-59
2023/08/30 05:16:00;;;;;;;23.60;21.20;;;11.90;99.90;;;;;;5119556;28;20521;-61
2023/08/30 05:18:27;;;;;;;24.10;21.60;;;11.90;99.90;;;;;;5119190;28;20471;-59
2023/08/30 05:20:55;;;;;;;22.27;19.37;;;11.90;99.90;;;;;;5119429;28;20465;-59
2023/08/30 05:23:22;;;;;;;22.83;20.40;;;12.00;99.90;;;;;;5119337;28;20916;-59
2023/08/30 05:25:49;;;;;;;24.27;21.00;;;12.00;99.90;;;;;;5119062;28;20502;-59
2023/08/30 05:28:18;;;;;;;22.77;20.37;;;12.00;99.90;;;;;;5118951;28;20466;-59
2023/08/30 05:30:46;;;;;;;25.10;22.33;;;12.00;99.90;;;;;;5119018;28;20480;-59
2023/08/30 05:33:13;;;;;;;27.00;22.23;;;12.10;99.90;;;;;;5119202;28;20481;-58
2023/08/30 05:35:40;;;;;;;26.20;22.03;;;12.10;99.90;;;;;;5118379;28;20574;-59
2023/08/30 05:38:07;;;;;;;24.80;21.97;;;12.10;99.90;;;;;;5118789;28;20798;-59
2023/08/30 05:40:35;;;;;;;26.37;22.63;;;12.10;99.90;;;;;;5106402;28;20462;-60
2023/08/30 05:43:02;;;;;;;28.00;23.60;;;12.10;99.90;;;;;;5097680;28;20546;-59
2023/08/30 05:45:31;;;;;;;27.57;22.80;;;12.20;99.90;;;;;;5094929;28;20457;-59
2023/08/30 05:47:58;;;;;;;27.87;23.87;;;12.20;99.90;;;;;;5096093;28;20453;-59
2023/08/30 05:50:25;;;;;;;27.17;24.23;;;12.30;99.90;;;;;;5095359;28;20457;-59
2023/08/30 05:52:53;;;;;;;24.37;21.77;;;12.30;99.90;;;;;;5095088;28;20552;-59
2023/08/30 05:55:20;;;;;;;26.53;23.47;;;12.30;99.90;;;;;;5095513;28;20753;-59
2023/08/30 05:57:47;;;;;;;30.10;25.27;;;12.30;99.90;;;;;;5095456;28;20500;-59
2023/08/30 06:00:15;;;;;;;28.77;24.63;;;12.30;99.90;;;;;;5095440;28;20461;-59
2023/08/30 06:02:44;;;;;;;29.93;26.70;;;12.30;99.90;;;;;;5095348;28;20515;-60
2023/08/30 06:05:11;;;;;;;31.43;27.40;;;12.40;99.90;;;;;;5097277;28;20554;-60
2023/08/30 06:07:39;;;;;;;32.83;29.30;;;12.50;99.90;;;;;;5097217;28;20468;-59
2023/08/30 06:10:06;;;;;;;34.07;29.60;;;12.60;99.90;;;;;;5096401;28;20526;-59
2023/08/30 06:12:34;;;;;;;33.33;29.73;;;12.60;99.90;;;;;;5096592;28;20844;-59
2023/08/30 06:15:01;;;;;;;34.70;31.00;;;12.70;99.90;;;;;;5096320;28;20509;-59
2023/08/30 06:17:28;;;;;;;34.00;30.50;;;12.80;99.90;;;;;;5096284;28;20467;-59
2023/08/30 06:19:57;;;;;;;36.47;31.20;;;12.90;99.90;;;;;;5095683;28;20502;-58
2023/08/30 06:22:24;;;;;;;34.57;30.93;;;13.00;99.90;;;;;;5096132;28;20460;-59
2023/08/30 06:24:51;;;;;;;36.70;32.87;;;13.10;99.90;;;;;;5097795;28;20484;-59
2023/08/30 06:27:18;;;;;;;33.30;29.70;;;13.20;99.90;;;;;;5098015;28;20554;-58
2023/08/30 06:29:46;;;;;;;35.40;31.77;;;13.30;99.90;;;;;;5097481;28;20484;-59
2023/08/30 06:32:13;;;;;;;37.57;30.17;;;13.50;99.90;;;;;;5097677;28;20488;-59
2023/08/30 06:34:40;;;;;;;33.30;29.70;;;13.60;99.90;;;;;;5097477;28;20477;-58
2023/08/30 06:37:09;;;;;;;35.60;30.03;;;13.80;99.90;;;;;;5096215;28;20960;-59
2023/08/30 06:39:36;;;;;;;29.90;26.80;;;13.90;99.90;;;;;;5097751;28;20480;-58
2023/08/30 06:42:04;;;;;;;31.43;28.20;;;14.10;99.90;;;;;;5097402;28;20772;-58
2023/08/30 06:44:31;;;;;;;31.80;28.47;;;14.20;99.90;;;;;;5096232;28;20492;-59
2023/08/30 06:46:58;;;;;;;33.07;29.67;;;14.30;99.90;;;;;;5096321;28;20499;-59
2023/08/30 06:49:25;;;;;;;29.93;27.00;;;14.50;99.90;;;;;;5097273;28;20460;-59
2023/08/30 06:51:53;;;;;;;31.53;28.23;;;14.50;99.90;;;;;;5097247;28;20466;-59
2023/08/30 06:54:22;;;;;;;28.07;25.47;;;14.60;99.90;;;;;;5097095;28;20463;-59
2023/08/30 06:56:58;;;;;;;28.80;25.77;;;14.80;99.90;;;;;;5097256;28;20776;-59
2023/08/30 06:59:26;;;;;;;28.90;26.10;;;14.90;98.70;;;;;;5097311;28;20460;-60
2023/08/30 07:01:53;;;;;;;28.33;25.20;;;15.10;99.90;;;;;;5095173;28;20460;-59
2023/08/30 07:04:21;;;;;;;27.10;24.40;;;15.10;49.60;;;;;;5099654;28;20846;-60
2023/08/30 07:06:48;;;;;;;26.10;23.40;;;15.30;39.30;;;;;;5099557;28;20509;-59
2023/08/30 07:09:16;;;;;;;24.27;21.90;;;15.50;1.00;;;;;;5100079;28;20464;-59
2023/08/30 07:11:46;;;;;;;24.73;22.43;;;15.60;1.00;;;;;;5099460;28;20506;-58
2023/08/30 07:14:14;;;;;;;23.67;21.27;;;15.90;1.00;;;;;;5099561;28;20444;-59
2023/08/30 07:16:41;;;;;;;22.57;20.37;;;16.00;99.90;;;;;;5101402;28;20484;-58
2023/08/30 07:19:09;;;;;;;22.43;20.23;;;16.20;99.90;;;;;;5101554;28;20495;-59
2023/08/30 07:21:38;;;;;;;19.47;17.57;;;16.30;1.00;;;;;;5100621;28;20460;-58
2023/08/30 07:24:07;;;;;;;19.97;18.07;;;16.50;99.90;;;;;;5100834;28;20499;-59
2023/08/30 07:26:34;;;;;;;19.20;17.30;;;16.70;1.00;;;;;;5101363;28;20889;-58
2023/08/30 07:29:04;;;;;;;19.43;17.23;;;16.80;99.90;;;;;;5101370;28;20563;-59
2023/08/30 07:31:32;;;;;;;18.20;16.40;;;16.90;99.90;;;;;;5100508;28;20843;-59
2023/08/30 07:33:59;;;;;;;17.33;15.60;;;17.00;99.90;;;;;;5098471;28;20458;-59
2023/08/30 07:36:27;;;;;;;16.77;15.13;;;17.20;99.90;;;;;;5098811;28;20514;-59
2023/08/30 07:38:55;;;;;;;16.83;15.23;;;17.30;72.20;;;;;;5098937;28;20448;-59
2023/08/30 07:41:22;;;;;;;15.47;13.90;;;17.50;32.20;;;;;;5098401;28;20513;-60
2023/08/30 07:43:49;;;;;;;15.17;13.67;;;17.70;1.00;;;;;;5097518;28;20810;-59
2023/08/30 07:46:18;;;;;;;12.13;10.90;;;17.90;1.00;;;;;;5098572;28;20584;-59
2023/08/30 07:48:45;;;;;;;12.87;11.67;;;18.20;99.90;;;;;;5099398;28;20460;-60
2023/08/30 07:51:13;;;;;;;13.80;11.27;;;18.20;1.00;;;;;;5100179;28;20469;-60
2023/08/30 07:53:40;;;;;;;11.40;10.20;;;18.30;1.00;;;;;;5099465;28;20452;-60
2023/08/30 07:56:07;;;;;;;12.83;11.53;;;18.30;1.00;;;;;;5098627;28;20487;-59
2023/08/30 07:58:34;;;;;;;12.93;10.97;;;18.40;1.00;;;;;;5098978;28;20460;-59
2023/08/30 08:01:03;;;;;;;12.07;10.90;;;18.60;1.00;;;;;;5099505;28;20495;-59
2023/08/30 08:03:31;;;;;;;10.80;9.70;;;18.80;1.00;;;;;;5099467;28;20456;-59
2023/08/30 08:06:00;;;;;;;9.80;8.90;;;19.10;1.00;;;;;;5099105;28;20595;-60
2023/08/30 08:08:27;;;;;;;10.07;8.47;;;19.20;99.90;;;;;;5099311;28;20463;-59
2023/08/30 08:10:55;;;;;;;10.43;8.83;;;19.20;99.90;;;;;;5100371;28;20877;-58
2023/08/30 08:13:22;;;;;;;8.80;7.83;;;19.30;1.00;;;;;;5096749;28;20479;-59
2023/08/30 08:15:49;;;;;;;10.73;8.37;;;19.50;99.90;;;;;;5099079;28;20467;-59
2023/08/30 08:18:16;;;;;;;9.23;8.37;;;19.70;99.90;;;;;;5099822;28;20495;-61
2023/08/30 08:20:45;;;;;;;8.37;7.57;;;19.80;99.90;;;;;;5099990;28;20488;-60
2023/08/30 08:23:12;;;;;;;8.30;7.53;;;19.80;99.90;;;;;;5100154;28;20481;-58
2023/08/30 08:25:40;;;;;;;8.87;8.00;;;19.90;99.90;;;;;;5099686;28;20587;-58
2023/08/30 08:28:07;;;;;;;9.53;7.30;;;20.10;80.30;;;;;;5099411;28;20457;-59
2023/08/30 08:30:35;;;;;;;6.53;6.00;;;20.00;17.90;;;;;;5099799;28;20482;-60
2023/08/30 08:33:02;;;;;;;6.60;5.90;;;20.30;11.70;;;;;;5099527;28;20456;-59
2023/08/30 08:35:29;;;;;;;6.47;5.87;;;20.30;1.00;;;;;;5103264;28;20582;-59
2023/08/30 08:37:58;;;;;;;8.27;6.00;;;20.50;1.00;;;;;;5119663;28;20922;-61
2023/08/30 08:40:25;;;;;;;7.00;6.40;;;20.30;99.90;;;;;;5120156;28;20534;-60
2023/08/30 08:42:55;;;;;;;7.50;6.47;;;20.40;99.90;;;;;;5119997;28;20455;-60
2023/08/30 08:45:24;;;;;;;6.23;5.63;;;20.10;99.90;;;;;;5120030;28;20757;-60
2023/08/30 08:47:51;;;;;;;6.83;5.60;;;20.50;1.00;;;;;;5119579;28;20459;-59
2023/08/30 08:50:19;;;;;;;7.00;6.23;;;20.60;99.90;;;;;;5119775;28;20819;-62
2023/08/30 08:52:47;;;;;;;7.57;6.80;;;20.60;99.90;;;;;;5119799;28;20459;-59
2023/08/30 08:55:16;;;;;;;6.30;5.70;;;20.70;99.90;;;;;;5119774;28;20551;-60
2023/08/30 08:57:45;;;;;;;9.03;5.20;;;20.70;99.90;;;;;;5116777;28;20495;-59
2023/08/30 09:00:14;;;;;;;9.37;5.70;;;20.70;99.90;;;;;;5101828;28;20459;-60
2023/08/30 09:02:42;;;;;;;8.03;5.67;;;21.10;99.90;;;;;;5115278;28;20801;-60
2023/08/30 09:05:11;;;;;;;6.50;5.40;;;21.20;99.90;;;;;;5118730;28;20523;-59
2023/08/30 09:07:39;;;;;;;6.87;6.17;;;21.60;99.90;;;;;;5118934;28;20947;-59
2023/08/30 09:10:07;;;;;;;6.00;5.07;;;21.60;1.00;;;;;;5118819;28;20510;-60
2023/08/30 09:12:36;;;;;;;6.10;5.50;;;21.80;1.00;;;;;;5118099;28;20458;-60
2023/08/30 09:15:04;;;;;;;6.47;5.83;;;21.90;42.90;;;;;;5119593;28;20512;-60
2023/08/30 09:17:37;;;;;;;6.07;5.47;;;21.60;12.90;;;;;;5119120;28;20491;-59
2023/08/30 09:20:09;;;;;;;7.43;5.60;;;21.40;99.90;;;;;;5117218;28;20918;-60
2023/08/30 09:22:40;;;;;;;6.40;5.43;;;21.20;54.90;;;;;;5081170;28;20783;-59
2023/08/30 09:25:10;;;;;;;6.93;5.60;;;21.20;1.00;;;;;;5077678;28;20878;-60
2023/08/30 09:27:41;;;;;;;6.70;6.10;;;21.10;1.00;;;;;;5075689;28;20463;-59
2023/08/30 09:30:10;;;;;;;7.43;5.70;;;21.20;1.00;;;;;;5076767;28;20461;-59
2023/08/30 09:32:42;;;;;;;6.83;6.23;;;21.50;1.00;;;;;;5076985;28;20461;-59
2023/08/30 09:35:11;;;;;;;6.00;5.00;;;21.70;1.00;;;;;;5077721;28;20465;-59
2023/08/30 09:37:38;;;;;;;7.80;5.83;;;21.90;1.00;;;;;;5097384;28;20521;-60
2023/08/30 09:40:07;;;;;;;6.40;5.40;;;22.00;15.80;;;;;;5096896;28;20452;-60
2023/08/30 09:42:34;;;;;;;6.60;5.40;;;22.30;1.00;;;;;;5097992;28;20467;-60
2023/08/30 09:45:06;;;;;;;6.17;5.57;;;21.70;1.00;;;;;;5098482;28;20496;-60
2023/08/30 09:47:33;;;;;;;6.60;5.70;;;21.70;83.60;;;;;;5097870;28;20459;-60
2023/08/30 09:50:03;;;;;;;5.97;5.37;;;21.80;99.90;;;;;;5098408;28;20464;-59
2023/08/30 09:52:32;;;;;;;6.23;4.80;;;21.90;1.00;;;;;;5098504;28;20464;-60
2023/08/30 09:55:00;;;;;;;6.03;5.43;;;21.90;99.90;;;;;;5098631;28;20484;-62
2023/08/30 09:57:29;;;;;;;6.23;5.67;;;21.40;99.90;;;;;;5098376;28;20496;-61
2023/08/30 09:59:59;;;;;;;7.50;6.80;;;20.90;99.90;;;;;;5100746;28;20518;-58
2023/08/30 10:02:28;;;;;;;6.47;5.83;;;20.60;99.90;;;;;;5106938;28;20496;-59
2023/08/30 10:04:56;;;;;;;6.97;6.30;;;20.20;86.00;;;;;;5097996;28;20488;-60
2023/08/30 10:07:24;;;;;;;6.70;6.10;;;20.00;1.00;;;;;;5097834;28;20456;-60
2023/08/30 10:09:53;;;;;;;6.70;5.93;;;19.70;80.00;;;;;;5097888;28;20492;-60
2023/08/30 10:12:22;;;;;;;7.90;5.40;;;19.50;99.90;;;;;;5098192;28;20745;-59
2023/08/30 10:14:50;;;;;;;6.70;6.10;;;19.40;1.00;;;;;;5113475;28;20475;-59
2023/08/30 10:17:22;;;;;;;8.07;7.23;;;19.30;17.60;;;;;;5117564;28;20487;-59
2023/08/30 10:19:53;;;;;;;9.10;6.50;;;19.10;99.90;;;;;;5118104;28;20459;-60
2023/08/30 10:22:22;;;;;;;7.90;7.20;;;19.00;99.90;;;;;;5117571;28;20512;-59
2023/08/30 10:24:54;;;;;;;8.07;6.97;;;18.80;1.00;;;;;;5118091;28;20963;-59
2023/08/30 10:27:22;;;;;;;8.10;7.30;;;18.70;99.90;;;;;;5118243;28;20755;-58
2023/08/30 10:29:51;;;;;;;8.27;7.33;;;18.40;99.90;;;;;;5116934;28;20451;-58
2023/08/30 10:32:21;;;;;;;7.33;6.70;;;18.40;99.90;;;;;;5116039;28;20459;-61
2023/08/30 10:34:51;;;;;;;8.30;6.73;;;18.20;99.90;;;;;;5116574;28;20483;-60
2023/08/30 10:37:24;;;;;;;7.07;6.33;;;18.10;99.90;;;;;;5097007;28;20515;-59
2023/08/30 10:39:51;;;;;;;7.40;6.70;;;18.00;99.90;;;;;;5096122;28;20529;-59
2023/08/30 10:42:22;;;;;;;9.20;7.27;;;18.00;1.00;;;;;;5096331;28;20554;-59
2023/08/30 10:44:50;;;;;;;6.30;5.70;;;18.00;1.00;;;;;;5096303;28;20800;-60
2023/08/30 10:47:21;;;;;;;7.80;7.00;;;18.00;1.00;;;;;;5097263;28;20467;-59
2023/08/30 10:49:50;;;;;;;7.07;6.37;;;18.00;49.20;;;;;;5095495;28;20547;-58
2023/08/30 10:52:17;;;;;;;5.93;5.23;;;18.10;99.90;;;;;;5095315;28;20495;-59
2023/08/30 10:54:45;;;;;;;6.17;5.60;;;17.90;99.90;;;;;;5095788;28;20452;-60
2023/08/30 10:57:16;;;;;;;6.30;5.70;;;17.60;99.90;;;;;;5095772;28;20931;-62
2023/08/30 11:00:07;;;;;;;7.00;6.20;;;17.50;1.00;;;;;;5095456;28;20464;-60
2023/08/30 11:02:34;;;;;;;6.20;5.20;;;17.40;1.00;;;;;;5095144;28;20460;-59
2023/08/30 11:05:04;;;;;;;6.63;5.57;;;17.30;1.00;;;;;;5097691;28;20587;-62
2023/08/30 11:07:31;;;;;;;6.80;6.10;;;17.40;1.00;;;;;;5095136;28;20845;-62
2023/08/30 11:09:59;;;;;;;8.37;6.33;;;17.20;1.00;;;;;;5094830;28;20451;-61
2023/08/30 11:12:27;;;;;;;7.10;6.27;;;17.20;14.80;;;;;;5095596;28;20488;-62
2023/08/30 11:14:55;;;;;;;8.10;7.37;;;17.30;99.90;;;;;;5095942;28;20738;-62
2023/08/30 11:17:22;;;;;;;8.13;7.43;;;17.10;1.00;;;;;;5094799;28;20456;-62
2023/08/30 11:19:52;;;;;;;7.60;6.93;;;17.10;99.90;;;;;;5088091;28;20763;-62
2023/08/30 11:22:21;;;;;;;7.37;6.77;;;17.10;99.90;;;;;;5096545;28;20452;-62
2023/08/30 11:24:50;;;;;;;7.40;6.70;;;17.00;99.90;;;;;;5096068;28;20553;-62
2023/08/30 11:27:18;;;;;;;8.10;7.37;;;16.90;99.90;;;;;;5096585;28;20761;-63
2023/08/30 11:29:45;;;;;;;9.57;8.00;;;16.90;99.90;;;;;;5097085;28;20922;-61
2023/08/30 11:32:13;;;;;;;8.10;7.27;;;16.90;1.00;;;;;;5096986;28;20555;-63
2023/08/30 11:34:40;;;;;;;9.53;8.63;;;16.80;1.00;;;;;;5096631;28;20484;-63
2023/08/30 11:37:09;;;;;;;9.60;8.60;;;16.70;1.00;;;;;;5113733;28;20530;-65
2023/08/30 11:39:39;;;;;;;8.67;7.77;;;16.50;1.00;;;;;;5117260;28;20490;-68
2023/08/30 11:42:07;;;;;;;10.00;8.67;;;16.30;1.00;;;;;;5116920;28;20460;-65
2023/08/30 11:44:35;;;;;;;14.30;10.80;;;16.30;99.00;;;;;;5116644;28;20459;-67
2023/08/30 11:47:03;;;;;;;13.20;10.10;;;16.30;99.90;;;;;;5116952;28;20485;-67
2023/08/30 11:49:31;;;;;;;13.10;10.70;;;16.00;99.90;;;;;;5118034;28;20502;-64
2023/08/30 11:52:00;;;;;;;10.83;9.50;;;15.80;99.90;;;;;;5121436;28;20459;-64
2023/08/30 11:54:27;;;;;;;8.00;6.23;;;15.70;1.00;;;;;;5122564;28;20506;-66
2023/08/30 11:56:56;;;;;;;7.67;5.93;;;15.50;1.00;;;;;;5124069;28;20494;-64
2023/08/30 11:59:24;;;;;;;6.57;4.67;;;15.50;1.00;;;;;;5123450;28;20879;-66
2023/08/30 12:01:54;;;;;;;5.40;4.90;;;15.60;1.00;;;;;;5121879;28;20455;-66
2023/08/30 12:04:21;;;;;;;4.87;4.10;;;15.50;1.00;;;;;;5122435;28;20499;-65
2023/08/30 12:06:53;;;;;;;3.90;3.50;;;15.50;14.00;;;;;;5121690;28;20517;-65
2023/08/30 12:09:21;;;;;;;3.40;3.10;;;15.60;38.50;;;;;;5121464;28;20462;-66
2023/08/30 12:11:49;;;;;;;3.70;2.90;;;15.60;1.00;;;;;;5120827;28;20455;-65
2023/08/30 12:14:18;;;;;;;3.77;2.97;;;15.50;1.00;;;;;;5121358;28;20509;-65
2023/08/30 12:16:46;;;;;;;4.73;3.10;;;15.50;34.30;;;;;;5123724;27;20446;-63
2023/08/30 12:19:15;;;;;;;4.07;3.67;;;15.50;93.70;;;;;;5130627;27;20796;-66
2023/08/30 12:21:43;;;;;;;4.50;3.57;;;15.40;24.40;;;;;;5124047;28;20459;-63
2023/08/30 12:24:11;;;;;;;4.40;3.73;;;15.40;83.00;;;;;;5125014;28;20467;-64
2023/08/30 12:26:38;;;;;;;5.23;3.13;;;15.30;99.90;;;;;;5123006;27;20534;-65
2023/08/30 12:29:06;;;;;;;5.20;3.93;;;15.30;94.80;;;;;;5130804;27;20449;-68
2023/08/30 12:31:35;;;;;;;4.50;3.77;;;15.30;99.90;;;;;;5135014;27;20731;-66
2023/08/30 12:34:02;;;;;;;5.60;4.10;;;15.40;99.90;;;;;;5135832;27;20452;-66
2023/08/30 12:36:30;;;;;;;3.90;3.50;;;15.40;99.90;;;;;;5111606;27;20486;-65
2023/08/30 12:38:57;;;;;;;4.47;3.60;;;15.50;99.90;;;;;;5100944;28;20543;-63
2023/08/30 12:41:25;;;;;;;3.93;3.50;;;15.60;99.90;;;;;;5100416;28;20460;-64
2023/08/30 12:43:52;;;;;;;4.00;3.60;;;15.60;99.90;;;;;;5101413;28;20498;-66